< Typhoon 199430 1994 Season Typhoon 199432 >
Typhoon 199431 (VERNE)
General InformationTrack Information on Google MapsDetailed Wind InformationList of All Images || Disaster Info.ResourceGoogle EarthGE AnimationAtom FeedGeoJSON
Detalied Best Track (Time Zone = UTC)
Year Month Day Hour Lat. Long. Pressure (hPa) Wind (kt) Class Image Chart
1994 10 15 12 10.7 166.0 1006 0 2 Image Chart
1994 10 15 18 10.8 165.0 1006 0 2 Image Chart
1994 10 16 00 10.9 163.5 1006 0 2 Image Chart
1994 10 16 06 11.1 162.0 1006 0 2 Image Chart
1994 10 16 12 11.4 160.5 1004 0 2 Image Chart
1994 10 16 18 11.6 158.8 1004 0 2 Image Chart
1994 10 17 00 12.0 157.0 1004 0 2 Image Chart
1994 10 17 06 13.0 155.0 1004 0 2 Image Chart
1994 10 17 12 13.7 153.5 1004 0 2 Image Chart
1994 10 17 18 14.0 152.0 1002 0 2 Image Chart
1994 10 18 00 14.2 150.5 1000 35 3 Image Chart
1994 10 18 06 14.4 148.8 996 40 3 Image Chart
1994 10 18 12 14.5 147.5 992 45 3 Image Chart
1994 10 18 18 14.4 146.0 990 50 4 Image Chart
1994 10 19 00 14.3 144.7 990 50 4 Image Chart
1994 10 19 06 14.5 143.7 985 55 4 Image Chart
1994 10 19 12 15.0 142.0 980 55 4 Image Chart
1994 10 19 18 15.2 140.5 975 60 4 Image Chart
1994 10 20 00 15.4 138.9 970 65 5 Image Chart
1994 10 20 06 15.8 137.4 970 65 5 Image Chart
1994 10 20 12 16.3 136.0 970 65 5 Image Chart
1994 10 20 18 16.6 134.8 965 70 5 Image Chart
1994 10 21 00 16.9 133.8 960 75 5 Image Chart
1994 10 21 06 17.2 133.0 960 75 5 Image Chart
1994 10 21 12 17.6 132.3 960 75 5 Image Chart
1994 10 21 18 17.8 131.9 960 75 5 Image Chart
1994 10 22 00 18.0 131.6 960 75 5 Image Chart
1994 10 22 06 18.2 131.3 955 80 5 Image Chart
1994 10 22 12 18.4 131.1 955 80 5 Image Chart
1994 10 22 18 18.5 130.8 955 80 5 Image Chart
1994 10 23 00 18.7 130.5 955 80 5 Image Chart
1994 10 23 06 18.6 130.2 955 80 5 Image Chart
1994 10 23 12 18.4 130.1 955 80 5 Image Chart
1994 10 23 18 18.3 130.0 950 80 5 Image Chart
1994 10 24 00 18.1 129.9 950 80 5 Image Chart
1994 10 24 06 17.6 129.8 950 80 5 Image Chart
1994 10 24 12 17.2 129.7 950 80 5 Image Chart
1994 10 24 18 16.7 129.6 950 80 5 Image Chart
1994 10 25 00 16.3 129.7 950 80 5 Image Chart
1994 10 25 06 16.0 129.8 950 80 5 Image Chart
1994 10 25 12 15.7 129.7 950 80 5 Image Chart
1994 10 25 18 15.6 129.5 950 80 5 Image Chart
1994 10 26 00 15.4 129.3 955 75 5 Image Chart
1994 10 26 06 15.2 129.0 960 70 5 Image Chart
1994 10 26 12 15.2 129.0 960 70 5 Image Chart
1994 10 26 18 15.2 129.2 965 65 5 Image Chart
1994 10 27 00 15.4 129.5 970 65 5 Image Chart
1994 10 27 06 15.8 129.9 975 60 4 Image Chart
1994 10 27 12 16.3 130.3 980 55 4 Image Chart
1994 10 27 18 16.8 130.6 980 55 4 Image Chart
1994 10 28 00 17.5 130.9 980 55 4 Image Chart
1994 10 28 06 18.2 131.0 985 50 4 Image Chart
1994 10 28 12 18.9 131.0 985 50 4 Image Chart
1994 10 28 18 19.3 131.2 985 50 4 Image Chart
1994 10 29 00 19.6 131.7 985 50 4 Image Chart
1994 10 29 06 20.1 132.0 985 50 4 Image Chart
1994 10 29 12 20.9 132.4 985 50 4 Image Chart
1994 10 29 18 22.0 133.3 985 50 4 Image Chart
1994 10 30 00 22.9 134.5 985 50 4 Image Chart
1994 10 30 06 23.8 135.2 985 50 4 Image Chart
1994 10 30 12 24.5 136.0 985 50 4 Image Chart
1994 10 30 18 25.0 136.8 985 50 4 Image Chart
1994 10 31 00 25.6 137.8 990 45 3 Image Chart
1994 10 31 06 26.0 139.2 990 45 3 Image Chart
1994 10 31 09 26.4 139.9 990 45 3 Image Chart
1994 10 31 12 26.7 140.5 990 45 3 Image Chart
1994 10 31 15 26.9 141.2 990 45 3 Image Chart
1994 10 31 18 27.1 141.9 992 45 3 Image Chart
1994 10 31 21 27.5 142.6 994 45 3 Image Chart
1994 11 1 00 27.7 143.1 996 40 3 Image Chart
1994 11 1 03 27.9 143.5 998 40 3 Image Chart
1994 11 1 06 28.3 144.2 1000 40 3 Image Chart
1994 11 1 12 28.9 145.0 1004 0 6 Image Chart
1994 11 1 18 29.7 146.0 1004 0 6 Image Chart
1994 11 2 00 31.0 147.5 1004 0 6 Image Chart
1994 11 2 06 33.0 149.5 1004 0 6 Image Chart
1994 11 2 12 34.0 151.5 1004 0 6 Image Chart
1994 11 2 18 35.0 153.5 1004 0 6 Image Chart
1994 11 3 00 36.3 155.5 1004 0 6 Image Chart
1994 11 3 06 37.3 157.2 1004 0 6 Image Chart
1994 11 3 12 38.5 158.5 1006 0 6 Image Chart
1994 11 3 18 39.4 159.8 1008 0 6 Image Chart
1994 11 4 00 40.6 160.8 1008 0 6 Image Chart
Japan Meteorological Agency Best Track Data | Correction Date : 1995-01-30
< Typhoon 199430 1994 Season Typhoon 199432 >

Help